Time;durP1;ratioP1;P1;durP2;ratioP2;P2;SDS_P1;SDS_P2;PMS_P1;PMS_P2;Temp;Humidity;BMP_temperature;BMP_pressure;BME280_temperature;BME280_humidity;BME280_pressure;Samples;Min_cycle;Max_cycle;Signal;HPM_P1;HPM_P2
2021/12/19 00:01:43;;;;;;;3.13;1.67;;;3.30;99.90;;;;;;5041430;28;20124;-85
2021/12/19 00:04:25;;;;;;;2.22;1.50;;;3.30;99.90;;;;;;5043283;28;20029;-85
2021/12/19 00:09:35;;;;;;;2.72;1.55;;;3.20;99.90;;;;;;5030320;28;20515;-84
2021/12/19 00:12:01;;;;;;;2.13;1.45;;;3.30;99.90;;;;;;5032410;28;20025;-84
2021/12/19 00:14:26;;;;;;;3.65;1.40;;;3.30;99.90;;;;;;5037657;28;20040;-84
2021/12/19 00:16:54;;;;;;;3.17;1.58;;;3.20;99.90;;;;;;5028197;28;20083;-84
2021/12/19 00:19:19;;;;;;;2.28;1.90;;;3.20;99.90;;;;;;5037608;28;20020;-85
2021/12/19 00:21:46;;;;;;;3.20;1.90;;;3.30;99.90;;;;;;5032768;28;20044;-84
2021/12/19 00:24:12;;;;;;;3.33;1.90;;;3.20;99.90;;;;;;5017320;28;20033;-84
2021/12/19 00:26:38;;;;;;;3.88;2.10;;;3.20;99.90;;;;;;5035243;28;20473;-85
2021/12/19 00:29:05;;;;;;;4.15;2.00;;;3.20;99.90;;;;;;5017356;28;20162;-84
2021/12/19 00:31:31;;;;;;;2.75;1.60;;;3.30;99.90;;;;;;5024910;28;20029;-85
2021/12/19 00:33:57;;;;;;;3.13;1.92;;;3.20;99.90;;;;;;5027308;28;20037;-85
2021/12/19 00:36:23;;;;;;;3.08;1.70;;;3.30;99.90;;;;;;5020058;28;20090;-84
2021/12/19 00:38:49;;;;;;;3.45;1.98;;;3.30;99.90;;;;;;5001002;28;20124;-85
2021/12/19 00:41:15;;;;;;;3.38;1.77;;;3.20;99.90;;;;;;5015580;28;20132;-85
2021/12/19 00:46:09;;;;;;;1.98;1.13;;;3.30;99.90;;;;;;5035454;28;20032;-84
2021/12/19 00:48:40;;;;;;;5.50;2.28;;;3.20;99.90;;;;;;5026647;28;20029;-84
2021/12/19 00:51:07;;;;;;;4.35;2.50;;;3.20;99.90;;;;;;5036999;28;20039;-85
2021/12/19 00:53:34;;;;;;;3.25;1.90;;;3.20;99.90;;;;;;5037795;28;20040;-85
2021/12/19 00:56:00;;;;;;;5.78;1.98;;;3.20;99.90;;;;;;5050884;28;20033;-85
2021/12/19 00:58:26;;;;;;;2.75;1.70;;;3.20;99.90;;;;;;5021874;28;20032;-84
2021/12/19 01:00:51;;;;;;;3.95;2.08;;;3.20;99.90;;;;;;5070766;28;20025;-85
2021/12/19 01:03:17;;;;;;;3.20;1.65;;;3.20;99.90;;;;;;5049004;28;20439;-85
2021/12/19 01:05:43;;;;;;;2.30;1.52;;;3.30;99.90;;;;;;5035452;28;20033;-84
2021/12/19 01:08:12;;;;;;;1.95;1.25;;;3.30;99.90;;;;;;5064745;28;20028;-85
2021/12/19 01:10:38;;;;;;;2.17;1.35;;;3.30;99.90;;;;;;5020112;28;20052;-84
2021/12/19 01:13:04;;;;;;;2.03;1.10;;;3.30;99.90;;;;;;5019130;28;20124;-84
2021/12/19 01:15:30;;;;;;;1.83;1.40;;;3.30;99.90;;;;;;5046213;28;20488;-83
2021/12/19 01:17:56;;;;;;;2.50;1.60;;;3.30;99.90;;;;;;4998711;28;20091;-85
2021/12/19 01:20:25;;;;;;;2.25;1.48;;;3.30;99.90;;;;;;5041098;28;20028;-85
2021/12/19 01:22:52;;;;;;;1.67;1.23;;;3.30;99.90;;;;;;5023576;28;20037;-84
2021/12/19 01:25:18;;;;;;;2.55;1.40;;;3.30;99.90;;;;;;5055893;28;20029;-84
2021/12/19 01:27:45;;;;;;;2.35;1.63;;;3.40;99.90;;;;;;5053083;28;20040;-84
2021/12/19 01:30:12;;;;;;;1.80;1.35;;;3.40;99.90;;;;;;5025040;28;20029;-84
2021/12/19 01:32:39;;;;;;;2.22;1.33;;;3.40;99.90;;;;;;5000169;28;20026;-85
2021/12/19 01:35:07;;;;;;;1.92;1.35;;;3.40;99.90;;;;;;5028482;28;20128;-85
2021/12/19 01:37:33;;;;;;;2.22;1.60;;;3.40;99.90;;;;;;5026817;28;20045;-85
2021/12/19 01:39:59;;;;;;;3.67;1.30;;;3.40;99.90;;;;;;5035851;28;20033;-84
2021/12/19 01:42:33;;;;;;;2.05;1.20;;;3.40;99.90;;;;;;5053657;28;20040;-85
2021/12/19 01:45:00;;;;;;;2.03;1.15;;;3.40;99.90;;;;;;5020242;28;20041;-86
2021/12/19 01:47:26;;;;;;;4.07;1.00;;;3.40;99.90;;;;;;5045633;28;20024;-85
2021/12/19 01:49:52;;;;;;;1.75;1.10;;;3.40;99.90;;;;;;5026872;28;20037;-84
2021/12/19 01:52:19;;;;;;;1.67;1.08;;;3.40;99.90;;;;;;5031524;28;20070;-83
2021/12/19 01:54:45;;;;;;;1.92;1.20;;;3.30;99.90;;;;;;5027338;28;20059;-85
2021/12/19 01:57:11;;;;;;;2.20;1.50;;;3.40;99.90;;;;;;5019453;28;20053;-86
2021/12/19 01:59:37;;;;;;;3.20;1.63;;;3.40;99.90;;;;;;5041947;28;20404;-85
2021/12/19 02:02:03;;;;;;;4.05;1.80;;;3.30;99.90;;;;;;5038824;28;20032;-85
2021/12/19 02:04:30;;;;;;;3.40;1.60;;;3.40;99.90;;;;;;5037053;28;20041;-85
2021/12/19 02:06:57;;;;;;;3.10;1.80;;;3.40;99.90;;;;;;5051404;28;20020;-86
2021/12/19 02:09:26;;;;;;;3.33;1.80;;;3.40;99.90;;;;;;5052000;28;20029;-85
2021/12/19 02:11:53;;;;;;;2.63;1.80;;;3.40;99.90;;;;;;5039030;28;20056;-85
2021/12/19 02:14:21;;;;;;;2.47;1.75;;;3.40;99.90;;;;;;5036892;28;20031;-85
2021/12/19 02:16:50;;;;;;;3.25;1.90;;;3.40;99.90;;;;;;5022455;28;20029;-85
2021/12/19 02:19:16;;;;;;;3.60;1.60;;;3.40;99.90;;;;;;5012444;28;20119;-85
2021/12/19 02:21:41;;;;;;;3.00;1.75;;;3.40;99.90;;;;;;5039900;28;20051;-85
2021/12/19 02:24:10;;;;;;;3.45;1.60;;;3.50;99.90;;;;;;5022791;28;20091;-84
2021/12/19 02:26:40;;;;;;;2.33;1.58;;;3.50;99.90;;;;;;5036885;28;20037;-85
2021/12/19 02:29:06;;;;;;;7.45;1.92;;;3.50;99.90;;;;;;5026687;28;20029;-85
2021/12/19 02:31:32;;;;;;;3.38;1.88;;;3.50;99.90;;;;;;5061455;28;20036;-85
2021/12/19 02:34:09;;;;;;;2.28;1.35;;;3.50;99.90;;;;;;5043486;28;20112;-85
2021/12/19 02:50:03;;;;;;;6.20;2.58;;;3.50;99.90;;;;;;5072397;28;20031;-85
2021/12/19 02:52:29;;;;;;;5.25;2.58;;;3.50;99.90;;;;;;5048328;28;20033;-85
2021/12/19 02:54:54;;;;;;;4.88;2.75;;;3.50;99.90;;;;;;5021218;28;20035;-85
2021/12/19 02:57:20;;;;;;;4.63;2.47;;;3.50;99.90;;;;;;5024868;28;20389;-84
2021/12/19 02:59:46;;;;;;;5.50;3.20;;;3.40;99.90;;;;;;5032209;28;20041;-85
2021/12/19 03:02:11;;;;;;;9.50;2.53;;;3.40;99.90;;;;;;5003075;28;20033;-86
2021/12/19 03:04:37;;;;;;;7.18;3.17;;;3.40;99.90;;;;;;5019815;28;20402;-85
2021/12/19 03:07:03;;;;;;;7.93;2.63;;;3.40;99.90;;;;;;5002770;28;20497;-84
2021/12/19 03:18:00;;;;;;;4.25;2.53;;;3.40;99.90;;;;;;5026470;28;20455;-85
2021/12/19 03:20:32;;;;;;;5.88;2.83;;;3.40;99.90;;;;;;5030847;28;20033;-84
2021/12/19 03:22:58;;;;;;;4.28;2.53;;;3.40;99.90;;;;;;5055955;28;20033;-85
2021/12/19 03:25:25;;;;;;;4.88;2.63;;;3.40;99.90;;;;;;5039710;28;20128;-86
2021/12/19 03:27:51;;;;;;;5.13;2.75;;;3.40;99.90;;;;;;5037992;28;20057;-86
2021/12/19 03:30:17;;;;;;;5.00;2.83;;;3.40;99.90;;;;;;5037589;28;20029;-85
2021/12/19 03:32:43;;;;;;;6.30;2.55;;;3.40;99.90;;;;;;5020446;28;20033;-86
2021/12/19 03:35:09;;;;;;;7.82;2.80;;;3.40;99.90;;;;;;5035620;28;20060;-85
2021/12/19 03:37:35;;;;;;;3.72;2.47;;;3.40;99.90;;;;;;5044741;28;20087;-86
2021/12/19 03:40:12;;;;;;;3.58;2.05;;;3.40;99.90;;;;;;5053549;28;20071;-86
2021/12/19 03:42:41;;;;;;;2.97;1.48;;;3.30;99.90;;;;;;5056120;28;20021;-84
2021/12/19 03:45:09;;;;;;;2.45;1.50;;;3.30;99.90;;;;;;5052723;28;20036;-86
2021/12/19 03:47:35;;;;;;;2.80;1.70;;;3.30;99.90;;;;;;5048662;28;20029;-86
2021/12/19 03:50:04;;;;;;;3.33;1.63;;;3.30;99.90;;;;;;5000914;28;20036;-86
2021/12/19 03:52:30;;;;;;;3.20;1.60;;;3.30;99.90;;;;;;5020546;28;20116;-86
2021/12/19 03:54:57;;;;;;;3.25;1.40;;;3.20;99.90;;;;;;5020535;28;20037;-86
2021/12/19 03:57:22;;;;;;;1.85;1.23;;;3.20;99.90;;;;;;5059946;28;20050;-86
2021/12/19 03:59:49;;;;;;;2.17;1.33;;;3.20;99.90;;;;;;5013271;28;20579;-85
2021/12/19 04:02:24;;;;;;;2.15;1.50;;;3.20;99.90;;;;;;5039262;28;20025;-85
2021/12/19 04:04:51;;;;;;;3.75;1.55;;;3.20;99.90;;;;;;5038190;28;20029;-86
2021/12/19 04:07:17;;;;;;;3.30;2.03;;;3.30;99.90;;;;;;5049213;28;20091;-84
2021/12/19 04:09:43;;;;;;;2.08;1.40;;;3.30;99.90;;;;;;5045433;28;20133;-85
2021/12/19 04:12:09;;;;;;;2.25;1.63;;;3.30;99.90;;;;;;5031980;28;20049;-83
2021/12/19 04:14:38;;;;;;;2.42;1.50;;;3.30;99.90;;;;;;5028134;28;20053;-83
2021/12/19 04:17:04;;;;;;;2.58;1.10;;;3.30;99.90;;;;;;5059231;28;20041;-84
2021/12/19 04:19:30;;;;;;;1.92;1.08;;;3.30;99.90;;;;;;5045505;28;20036;-85
2021/12/19 04:21:56;;;;;;;1.20;0.90;;;3.20;99.90;;;;;;5016434;28;20032;-85
2021/12/19 04:24:22;;;;;;;2.53;1.30;;;3.20;99.90;;;;;;5024771;28;20029;-85
2021/12/19 04:26:47;;;;;;;3.22;1.00;;;3.20;99.90;;;;;;5030079;28;20051;-85
2021/12/19 04:29:13;;;;;;;2.05;1.48;;;3.20;99.90;;;;;;5033208;28;20550;-85
2021/12/19 04:31:40;;;;;;;2.88;1.60;;;3.20;99.90;;;;;;5015529;28;20109;-85
2021/12/19 04:34:06;;;;;;;2.40;1.58;;;3.20;99.90;;;;;;5034615;28;20033;-85
2021/12/19 04:36:37;;;;;;;2.65;1.77;;;3.20;99.90;;;;;;5045924;28;20067;-85
2021/12/19 04:52:57;;;;;;;4.97;3.13;;;3.30;99.90;;;;;;5069682;28;20079;-84
2021/12/19 05:00:19;;;;;;;5.80;3.47;;;3.30;99.90;;;;;;5051330;28;20308;-85
2021/12/19 05:02:57;;;;;;;7.00;3.88;;;3.30;99.90;;;;;;5012553;28;20132;-85
2021/12/19 05:16:01;;;;;;;9.65;4.43;;;3.30;99.90;;;;;;5034375;28;20048;-85
2021/12/19 05:18:30;;;;;;;7.78;4.72;;;3.30;99.90;;;;;;5015874;28;20032;-85
2021/12/19 05:21:00;;;;;;;12.63;5.45;;;3.30;99.90;;;;;;5017175;28;20497;-85
2021/12/19 05:23:38;;;;;;;10.25;4.93;;;3.30;99.90;;;;;;5031103;28;20123;-84
2021/12/19 05:26:04;;;;;;;8.23;4.60;;;3.30;99.90;;;;;;5015000;28;20537;-86
2021/12/19 05:28:29;;;;;;;11.65;5.65;;;3.30;99.90;;;;;;5032797;28;20111;-85
2021/12/19 05:30:56;;;;;;;12.60;6.25;;;3.30;99.90;;;;;;5015960;28;20044;-84
2021/12/19 05:33:22;;;;;;;12.00;5.97;;;3.30;99.90;;;;;;5035026;28;20021;-84
2021/12/19 05:36:07;;;;;;;10.15;5.63;;;3.30;99.90;;;;;;5023034;28;20025;-85
2021/12/19 05:46:27;;;;;;;14.52;6.30;;;3.30;99.90;;;;;;5061013;28;20047;-84
2021/12/19 05:48:53;;;;;;;14.93;6.72;;;3.40;99.90;;;;;;5030931;28;20041;-84
2021/12/19 05:51:19;;;;;;;14.50;7.20;;;3.40;99.90;;;;;;5030515;28;20036;-84
2021/12/19 05:53:45;;;;;;;12.45;6.35;;;3.40;99.90;;;;;;5012606;28;20029;-83
2021/12/19 05:56:10;;;;;;;14.60;6.68;;;3.40;99.90;;;;;;5040372;28;20032;-85
2021/12/19 05:58:36;;;;;;;14.48;6.82;;;3.40;99.90;;;;;;5053728;28;20037;-84
2021/12/19 06:01:02;;;;;;;14.60;6.75;;;3.40;99.90;;;;;;5068203;28;20619;-85
2021/12/19 06:03:28;;;;;;;14.82;7.10;;;3.40;99.90;;;;;;5072592;28;20037;-85
2021/12/19 06:05:57;;;;;;;13.77;6.53;;;3.40;99.90;;;;;;5041733;28;20382;-84
2021/12/19 06:08:23;;;;;;;18.90;7.90;;;3.40;99.90;;;;;;5023630;28;20124;-84
2021/12/19 06:10:48;;;;;;;16.10;7.65;;;3.40;99.90;;;;;;5019907;28;20108;-85
2021/12/19 06:13:14;;;;;;;17.25;8.23;;;3.40;99.90;;;;;;5029282;28;20029;-84
2021/12/19 06:15:40;;;;;;;18.15;7.68;;;3.40;99.90;;;;;;5018566;28;20051;-84
2021/12/19 06:18:05;;;;;;;14.77;7.30;;;3.40;99.90;;;;;;5037719;28;20025;-84
2021/12/19 06:20:31;;;;;;;18.90;8.20;;;3.40;99.90;;;;;;5034386;28;20049;-85
2021/12/19 06:22:58;;;;;;;17.83;7.95;;;3.40;99.90;;;;;;5036936;28;20095;-85
2021/12/19 06:25:24;;;;;;;18.08;8.60;;;3.40;99.90;;;;;;5036583;28;20031;-85
2021/12/19 06:27:49;;;;;;;15.32;7.68;;;3.40;99.90;;;;;;5033823;28;20041;-85
2021/12/19 06:30:15;;;;;;;18.45;7.50;;;3.40;99.90;;;;;;5017089;28;20489;-84
2021/12/19 06:32:40;;;;;;;18.23;9.15;;;3.40;99.90;;;;;;5017339;28;20033;-85
2021/12/19 06:35:11;;;;;;;19.60;9.38;;;3.40;99.90;;;;;;5017066;28;20029;-85
2021/12/19 06:37:38;;;;;;;;;;;3.40;99.90;;;;;;5050761;28;20032;-85
2021/12/19 06:40:13;;;;;;;16.88;7.28;;;3.40;99.90;;;;;;5053518;28;19908;-84
2021/12/19 06:42:39;;;;;;;15.10;8.07;;;3.40;99.90;;;;;;5014217;28;20029;-84
2021/12/19 06:45:05;;;;;;;17.08;7.78;;;3.40;99.90;;;;;;4998939;28;20040;-85
2021/12/19 06:47:31;;;;;;;18.17;7.95;;;3.40;99.90;;;;;;5039165;28;20029;-84
2021/12/19 06:49:57;;;;;;;17.55;8.65;;;3.40;99.90;;;;;;5019325;28;20516;-85
2021/12/19 06:52:24;;;;;;;21.35;8.48;;;3.40;99.90;;;;;;5046367;28;20075;-85
2021/12/19 06:54:49;;;;;;;14.57;6.88;;;3.40;99.90;;;;;;5055146;28;20374;-84
2021/12/19 06:57:15;;;;;;;16.65;7.82;;;3.40;99.90;;;;;;5035512;28;20029;-84
2021/12/19 06:59:40;;;;;;;18.95;8.35;;;3.40;99.90;;;;;;5033046;28;20486;-84
2021/12/19 07:02:06;;;;;;;18.65;8.50;;;3.40;99.90;;;;;;5032884;28;20170;-84
2021/12/19 07:04:32;;;;;;;19.80;8.35;;;3.40;99.90;;;;;;5015826;28;20600;-85
2021/12/19 07:06:57;;;;;;;19.20;8.35;;;3.40;99.90;;;;;;5036015;28;20029;-84
2021/12/19 07:09:23;;;;;;;16.80;8.45;;;3.40;99.90;;;;;;5016131;28;20171;-84
2021/12/19 07:11:48;;;;;;;12.63;6.80;;;3.40;99.90;;;;;;5031174;28;20033;-84
2021/12/19 07:14:14;;;;;;;14.13;6.53;;;3.40;99.90;;;;;;5032658;28;20121;-85
2021/12/19 07:16:40;;;;;;;16.15;6.93;;;3.40;99.90;;;;;;5039066;28;20073;-84
2021/12/19 07:19:06;;;;;;;19.20;7.57;;;3.40;99.90;;;;;;5032573;28;20059;-84
2021/12/19 07:21:31;;;;;;;15.88;7.68;;;3.40;99.90;;;;;;5015389;28;20034;-85
2021/12/19 07:23:57;;;;;;;17.40;7.50;;;3.40;99.90;;;;;;5000297;28;20060;-85
2021/12/19 07:26:23;;;;;;;15.15;7.05;;;3.40;99.90;;;;;;5018998;28;20033;-85
2021/12/19 07:28:50;;;;;;;15.50;7.05;;;3.40;99.90;;;;;;5032545;28;20029;-85
2021/12/19 07:31:21;;;;;;;18.73;8.32;;;3.50;99.90;;;;;;5000662;28;20059;-85
2021/12/19 07:33:47;;;;;;;18.63;8.02;;;3.50;99.90;;;;;;5017814;28;20475;-84
2021/12/19 07:36:14;;;;;;;18.08;8.45;;;3.50;99.90;;;;;;5016228;28;20122;-85
2021/12/19 07:38:59;;;;;;;22.00;9.02;;;3.50;99.90;;;;;;5017403;28;20072;-84
2021/12/19 07:41:24;;;;;;;22.45;8.93;;;3.50;99.90;;;;;;5039684;28;20041;-85
2021/12/19 07:43:50;;;;;;;19.33;8.57;;;3.50;99.90;;;;;;5024308;28;20039;-84
2021/12/19 07:46:16;;;;;;;19.52;8.80;;;3.60;99.90;;;;;;5031077;28;20469;-84
2021/12/19 07:48:42;;;;;;;19.52;8.90;;;3.60;99.90;;;;;;5035626;28;20059;-85
2021/12/19 07:51:07;;;;;;;16.60;8.45;;;3.60;99.90;;;;;;5048502;28;20068;-84
2021/12/19 07:53:33;;;;;;;20.17;8.55;;;3.60;99.90;;;;;;5027547;28;20029;-84
2021/12/19 07:55:59;;;;;;;18.70;8.25;;;3.60;99.90;;;;;;5016951;28;20028;-84
2021/12/19 07:58:25;;;;;;;18.80;8.05;;;3.60;99.90;;;;;;5050932;22;20044;-84
2021/12/19 08:00:51;;;;;;;20.08;8.55;;;3.60;99.90;;;;;;5012185;28;20473;-84
2021/12/19 08:03:16;;;;;;;24.48;9.43;;;3.70;99.90;;;;;;5030037;28;20107;-83
2021/12/19 08:05:42;;;;;;;25.30;10.13;;;3.70;99.90;;;;;;4983426;28;20140;-84
2021/12/19 08:08:10;;;;;;;25.35;11.07;;;3.70;99.90;;;;;;5039731;28;20120;-84
2021/12/19 08:11:39;;;;;;;22.17;10.15;;;3.70;99.90;;;;;;5021137;28;20035;-84
2021/12/19 08:13:22;;;;;;;21.90;9.50;;;3.70;99.90;;;;;;5043376;28;20025;-84
2021/12/19 08:15:47;;;;;;;20.75;9.73;;;3.70;99.90;;;;;;5031142;28;20032;-84
2021/12/19 08:18:13;;;;;;;21.17;9.57;;;3.70;99.90;;;;;;5031721;28;20029;-84
2021/12/19 08:20:38;;;;;;;21.38;9.23;;;3.80;99.90;;;;;;5004314;28;20453;-84
2021/12/19 08:23:04;;;;;;;18.20;8.75;;;3.80;99.90;;;;;;5038809;28;20119;-84
2021/12/19 08:25:30;;;;;;;19.85;8.45;;;3.80;99.90;;;;;;5024766;28;20036;-84
2021/12/19 08:27:56;;;;;;;17.60;8.18;;;3.80;99.90;;;;;;5021791;28;20021;-84
2021/12/19 08:30:23;;;;;;;19.85;9.15;;;3.80;99.90;;;;;;5018169;28;20075;-84
2021/12/19 08:32:49;;;;;;;26.27;9.63;;;3.90;99.90;;;;;;5030573;28;20075;-84
2021/12/19 08:35:14;;;;;;;22.45;9.70;;;3.90;99.90;;;;;;5039055;28;20040;-84
2021/12/19 08:37:40;;;;;;;19.38;9.70;;;3.90;99.90;;;;;;5031623;28;20037;-83
2021/12/19 08:40:11;;;;;;;19.83;9.82;;;3.90;99.90;;;;;;5018064;28;20407;-85
2021/12/19 08:42:36;;;;;;;17.23;9.02;;;4.00;99.90;;;;;;5031926;28;20021;-85
2021/12/19 08:45:03;;;;;;;19.65;10.05;;;4.00;99.90;;;;;;5022651;28;20522;-83
2021/12/19 08:47:29;;;;;;;18.15;9.00;;;4.00;99.90;;;;;;5031390;28;20055;-83
2021/12/19 08:49:55;;;;;;;17.00;9.02;;;4.00;99.90;;;;;;5026233;28;20492;-83
2021/12/19 08:52:20;;;;;;;22.80;10.35;;;4.10;99.90;;;;;;5020350;28;20037;-83
2021/12/19 08:54:47;;;;;;;23.58;10.02;;;4.10;99.90;;;;;;5003107;28;20120;-83
2021/12/19 08:57:12;;;;;;;18.35;9.23;;;4.20;99.90;;;;;;5036575;28;20116;-83
2021/12/19 08:59:38;;;;;;;18.42;8.95;;;4.20;99.90;;;;;;5020248;28;20069;-83
2021/12/19 09:02:04;;;;;;;20.48;9.20;;;4.20;99.90;;;;;;5018313;28;20037;-83
2021/12/19 09:04:30;;;;;;;20.60;9.68;;;4.20;99.90;;;;;;5020306;28;20041;-83
2021/12/19 09:06:59;;;;;;;21.70;8.38;;;4.20;99.90;;;;;;5038326;28;20074;-83
2021/12/19 09:09:25;;;;;;;21.77;9.63;;;4.20;99.90;;;;;;5008174;28;20049;-83
2021/12/19 09:11:52;;;;;;;20.17;9.25;;;4.20;99.90;;;;;;5021374;28;20029;-83
2021/12/19 09:14:18;;;;;;;20.27;9.00;;;4.20;99.90;;;;;;5023608;28;20499;-83
2021/12/19 09:16:44;;;;;;;18.50;9.52;;;4.30;99.90;;;;;;5007835;28;20041;-83
2021/12/19 09:19:09;;;;;;;21.60;8.73;;;4.30;99.90;;;;;;5041454;28;20028;-83
2021/12/19 09:21:35;;;;;;;21.20;9.68;;;4.30;99.90;;;;;;5024108;28;20033;-83
2021/12/19 09:24:03;;;;;;;18.17;9.18;;;4.30;99.90;;;;;;5023618;28;20548;-83
2021/12/19 09:26:28;;;;;;;23.48;10.13;;;4.30;99.90;;;;;;5061285;28;20035;-83
2021/12/19 09:28:54;;;;;;;23.98;11.00;;;4.30;99.90;;;;;;5028738;28;20128;-83
2021/12/19 09:31:22;;;;;;;19.70;9.52;;;4.30;99.90;;;;;;5026739;28;20480;-83
2021/12/19 09:33:47;;;;;;;20.50;9.50;;;4.30;99.90;;;;;;5041876;28;20037;-83
2021/12/19 09:36:13;;;;;;;19.70;9.18;;;4.30;99.90;;;;;;5061730;28;20383;-83
2021/12/19 09:38:41;;;;;;;21.58;9.18;;;4.40;99.90;;;;;;5024142;28;20036;-83
2021/12/19 09:41:14;;;;;;;22.35;10.80;;;4.40;99.90;;;;;;5008314;28;20021;-83
2021/12/19 09:43:44;;;;;;;22.35;10.05;;;4.40;99.90;;;;;;5034185;28;20036;-83
2021/12/19 09:46:19;;;;;;;19.27;8.77;;;4.50;99.90;;;;;;5024623;28;20029;-83
2021/12/19 09:48:48;;;;;;;20.92;9.45;;;4.50;99.90;;;;;;5024639;28;20098;-83
2021/12/19 09:51:15;;;;;;;18.58;9.20;;;4.50;99.90;;;;;;5027491;28;20055;-83
2021/12/19 09:53:42;;;;;;;18.40;8.75;;;4.50;99.90;;;;;;5021952;28;20034;-83
2021/12/19 09:56:08;;;;;;;21.50;9.63;;;4.50;99.90;;;;;;5040881;28;20036;-83
2021/12/19 09:58:35;;;;;;;18.63;9.45;;;4.60;99.90;;;;;;5011967;28;20132;-83
2021/12/19 10:01:04;;;;;;;24.38;10.25;;;4.60;99.90;;;;;;5024678;28;20063;-83
2021/12/19 10:03:30;;;;;;;21.20;9.20;;;4.60;99.90;;;;;;5019509;28;20017;-84
2021/12/19 10:06:32;;;;;;;22.92;9.23;;;4.70;99.90;;;;;;5026401;28;20027;-85
2021/12/19 10:09:10;;;;;;;21.25;9.65;;;4.70;99.90;;;;;;4955394;28;20043;-82
2021/12/19 10:11:47;;;;;;;20.60;9.48;;;4.70;99.90;;;;;;5028470;28;20482;-83
2021/12/19 10:14:34;;;;;;;20.02;8.48;;;4.70;99.90;;;;;;5039872;28;20068;-83
2021/12/19 10:17:15;;;;;;;20.58;9.07;;;4.80;99.90;;;;;;5021452;28;20377;-83
2021/12/19 10:19:47;;;;;;;20.27;8.48;;;4.80;99.90;;;;;;5038758;28;20423;-82
2021/12/19 10:22:40;;;;;;;18.77;8.32;;;4.80;99.90;;;;;;5047091;28;20391;-83
2021/12/19 10:25:27;;;;;;;18.45;8.52;;;4.80;99.90;;;;;;5039884;28;20020;-83
2021/12/19 10:27:58;;;;;;;22.33;8.68;;;4.90;99.90;;;;;;5038860;28;20029;-83
2021/12/19 10:30:33;;;;;;;21.52;8.63;;;4.80;99.90;;;;;;5023719;28;20079;-83
2021/12/19 10:33:05;;;;;;;21.17;10.02;;;4.90;99.90;;;;;;5035315;28;20022;-84
2021/12/19 10:35:32;;;;;;;18.17;8.82;;;4.90;99.90;;;;;;5009333;28;20516;-84
2021/12/19 10:37:59;;;;;;;18.70;8.48;;;5.00;99.90;;;;;;5021640;28;20040;-84
2021/12/19 10:40:26;;;;;;;17.90;8.48;;;5.00;99.90;;;;;;5014843;28;20056;-87
2021/12/19 10:43:00;;;;;;;19.80;8.98;;;5.00;99.90;;;;;;5025665;28;20025;-86
2021/12/19 10:45:33;;;;;;;20.42;9.07;;;5.00;99.90;;;;;;5001147;28;20029;-86
2021/12/19 10:48:08;;;;;;;19.15;8.05;;;5.00;99.90;;;;;;5018882;28;20021;-86
2021/12/19 10:51:05;;;;;;;20.13;8.30;;;5.00;99.90;;;;;;5017441;28;20041;-85
2021/12/19 10:53:31;;;;;;;20.60;8.68;;;5.10;99.90;;;;;;5018455;28;20041;-85
2021/12/19 10:55:58;;;;;;;19.48;8.48;;;5.10;99.90;;;;;;5032849;28;20044;-85
2021/12/19 10:58:28;;;;;;;17.88;8.40;;;5.10;99.90;;;;;;5016495;28;20130;-85
2021/12/19 11:01:17;;;;;;;23.17;9.32;;;5.10;99.90;;;;;;5013751;28;20034;-85
2021/12/19 11:03:50;;;;;;;20.33;8.75;;;5.20;99.90;;;;;;5030570;28;20076;-85
2021/12/19 11:06:24;;;;;;;18.05;8.43;;;5.20;99.90;;;;;;5034151;28;20090;-85
2021/12/19 11:08:52;;;;;;;23.30;9.00;;;5.20;99.90;;;;;;5033236;28;20032;-86
2021/12/19 11:11:39;;;;;;;20.27;9.38;;;5.30;99.90;;;;;;5018622;28;20032;-85
2021/12/19 11:14:04;;;;;;;18.58;8.27;;;5.30;99.90;;;;;;5034667;28;20047;-85
2021/12/19 11:16:31;;;;;;;15.05;7.78;;;5.30;99.90;;;;;;5018415;28;20029;-85
2021/12/19 11:18:56;;;;;;;18.63;8.57;;;5.30;99.90;;;;;;5034011;28;20095;-84
2021/12/19 11:21:22;;;;;;;16.63;7.25;;;5.40;99.90;;;;;;5001115;28;20032;-84
2021/12/19 11:23:48;;;;;;;19.90;8.10;;;5.30;99.90;;;;;;5032144;28;20647;-83
2021/12/19 11:26:16;;;;;;;18.98;7.43;;;5.30;99.90;;;;;;5013737;28;20499;-83
2021/12/19 11:28:42;;;;;;;16.75;8.23;;;5.40;99.90;;;;;;4997448;28;20512;-83
2021/12/19 11:31:09;;;;;;;19.65;8.40;;;5.40;99.90;;;;;;5005398;28;20071;-83
2021/12/19 11:33:35;;;;;;;21.88;8.68;;;5.40;99.90;;;;;;5000632;28;20140;-83
2021/12/19 11:36:02;;;;;;;18.73;7.78;;;5.50;99.90;;;;;;5032499;28;20531;-80
2021/12/19 11:38:29;;;;;;;19.25;8.70;;;5.50;99.90;;;;;;5032878;28;20446;-82
2021/12/19 11:40:55;;;;;;;18.08;8.07;;;5.50;99.90;;;;;;5032139;28;20104;-81
2021/12/19 11:43:21;;;;;;;19.83;8.77;;;5.50;99.90;;;;;;5000288;28;20140;-81
2021/12/19 11:45:57;;;;;;;19.55;8.45;;;5.50;99.90;;;;;;4999949;28;20029;-82
2021/12/19 11:50:50;;;;;;;17.10;7.30;;;5.50;99.90;;;;;;5035305;28;20021;-83
2021/12/19 11:53:16;;;;;;;19.00;8.00;;;5.50;99.90;;;;;;5042019;28;20032;-83
2021/12/19 11:55:47;;;;;;;17.73;7.90;;;5.50;99.90;;;;;;5040951;28;20507;-83
2021/12/19 11:58:18;;;;;;;17.33;7.07;;;5.60;99.90;;;;;;5069336;22;20040;-85
2021/12/19 12:00:51;;;;;;;15.32;7.32;;;5.60;99.90;;;;;;5049477;28;20032;-86
2021/12/19 12:03:17;;;;;;;20.88;8.90;;;5.60;99.90;;;;;;5036591;28;20046;-86
2021/12/19 12:05:51;;;;;;;21.20;8.70;;;5.60;99.90;;;;;;5062022;28;20033;-86
2021/12/19 12:08:22;;;;;;;24.15;9.27;;;5.60;99.90;;;;;;5025938;28;20511;-86
2021/12/19 12:10:51;;;;;;;18.50;8.10;;;5.70;99.90;;;;;;5058817;23;20402;-83
2021/12/19 12:13:23;;;;;;;23.25;9.70;;;5.70;99.90;;;;;;5052628;28;20402;-83
2021/12/19 12:15:52;;;;;;;19.63;8.15;;;5.70;99.90;;;;;;5019706;28;20119;-83
2021/12/19 12:18:35;;;;;;;24.70;10.32;;;5.70;99.90;;;;;;5049386;28;20033;-83
2021/12/19 12:21:25;;;;;;;20.13;8.25;;;5.70;99.90;;;;;;5033732;28;20419;-82
2021/12/19 12:24:04;;;;;;;19.88;7.93;;;5.70;99.90;;;;;;5032762;28;20045;-83
2021/12/19 12:26:57;;;;;;;17.02;7.70;;;5.80;99.90;;;;;;5025321;28;20045;-82
2021/12/19 12:29:19;;;;;;;18.50;7.68;;;5.80;99.90;;;;;;5050438;28;20542;-83
2021/12/19 12:31:46;;;;;;;23.38;8.43;;;5.80;99.90;;;;;;5015371;28;20052;-82
2021/12/19 12:34:14;;;;;;;18.58;7.28;;;5.80;99.90;;;;;;5010042;28;20060;-82
2021/12/19 12:36:41;;;;;;;17.73;7.63;;;5.90;99.90;;;;;;4998728;28;20037;-82
2021/12/19 12:39:14;;;;;;;20.88;7.30;;;5.90;99.90;;;;;;5029782;28;20104;-83
2021/12/19 12:44:10;;;;;;;19.00;7.13;;;5.90;99.90;;;;;;5015803;28;20033;-83
2021/12/19 12:46:36;;;;;;;;;;;5.80;99.90;;;;;;5010635;28;20048;-83
2021/12/19 12:49:07;;;;;;;18.17;6.65;;;5.80;99.90;;;;;;5036729;28;19958;-83
2021/12/19 12:51:38;;;;;;;17.70;6.43;;;5.80;99.90;;;;;;5004885;28;20049;-83
2021/12/19 12:54:08;;;;;;;17.98;6.90;;;5.80;99.90;;;;;;5002854;28;20104;-83
2021/12/19 12:56:42;;;;;;;17.83;7.00;;;5.80;99.90;;;;;;5023319;28;20071;-83
2021/12/19 12:59:09;;;;;;;18.52;7.07;;;5.80;99.90;;;;;;5035400;28;21110;-82
2021/12/19 13:01:42;;;;;;;17.95;7.60;;;5.90;99.90;;;;;;4996188;28;20492;-83
2021/12/19 13:04:09;;;;;;;13.35;6.22;;;5.80;99.90;;;;;;5016397;28;20025;-83
2021/12/19 13:06:47;;;;;;;19.45;6.45;;;5.80;99.90;;;;;;5000450;28;20085;-82
2021/12/19 13:10:00;;;;;;;17.65;6.82;;;5.80;99.90;;;;;;5027019;28;20024;-82
2021/12/19 13:12:27;;;;;;;14.00;5.97;;;5.80;99.90;;;;;;5017464;28;20459;-83
2021/12/19 13:15:19;;;;;;;18.98;6.15;;;5.80;99.90;;;;;;5015756;28;20040;-83
2021/12/19 13:17:51;;;;;;;14.38;6.15;;;5.80;99.90;;;;;;5031927;28;20064;-83
2021/12/19 13:20:24;;;;;;;16.15;6.32;;;5.80;99.90;;;;;;5036422;28;20095;-83
2021/12/19 13:22:53;;;;;;;15.60;6.90;;;5.80;99.90;;;;;;5036564;28;20052;-83
2021/12/19 13:25:26;;;;;;;16.77;6.90;;;5.80;99.90;;;;;;5019645;28;20039;-83
2021/12/19 13:27:54;;;;;;;12.98;5.85;;;5.80;99.90;;;;;;5020218;28;20037;-82
2021/12/19 13:30:27;;;;;;;13.35;5.35;;;5.90;99.90;;;;;;5020331;28;20036;-83
2021/12/19 13:32:54;;;;;;;15.75;6.47;;;5.90;99.90;;;;;;5019455;28;20029;-83
2021/12/19 13:35:22;;;;;;;10.95;5.07;;;5.80;99.90;;;;;;5037264;28;20028;-83
2021/12/19 13:38:10;;;;;;;18.35;6.55;;;5.80;99.90;;;;;;5036121;28;20033;-83
2021/12/19 13:40:57;;;;;;;14.10;6.28;;;5.80;99.90;;;;;;5026349;28;20069;-83
2021/12/19 13:43:30;;;;;;;13.55;5.78;;;5.80;99.90;;;;;;5016757;28;20022;-82
2021/12/19 13:46:00;;;;;;;15.60;6.55;;;5.80;99.90;;;;;;5016381;28;20033;-83
2021/12/19 13:48:37;;;;;;;15.05;6.57;;;5.80;99.90;;;;;;5003543;28;20036;-83
2021/12/19 13:51:05;;;;;;;12.73;5.43;;;5.70;99.90;;;;;;5029176;28;20115;-83
2021/12/19 13:53:33;;;;;;;17.58;6.03;;;5.70;99.90;;;;;;5027006;28;20503;-82
2021/12/19 13:56:10;;;;;;;16.92;5.57;;;5.80;99.90;;;;;;5013521;28;20036;-82
2021/12/19 13:58:42;;;;;;;15.02;6.15;;;5.70;99.90;;;;;;5033919;28;20033;-83
2021/12/19 14:01:22;;;;;;;18.35;6.13;;;5.60;99.90;;;;;;5030216;28;20044;-83
2021/12/19 14:04:01;;;;;;;14.27;5.67;;;5.70;99.90;;;;;;5019518;28;20034;-83
2021/12/19 14:06:36;;;;;;;15.90;7.10;;;5.60;99.90;;;;;;5031438;28;20120;-82
2021/12/19 14:09:04;;;;;;;13.25;5.65;;;5.60;99.90;;;;;;5034570;28;20083;-83